Park Rapids, Minnesota
Current Conditions -  °F | °C
As of 9:53 PM on Wednesday 22 Oct 2014 (Local Time) from KPKD Reporting Station
Light Rain Light Rain  
Wind Chill: 11°   Ceiling: 2400
Heat Index: 11°   Visibility: 10mi
Dew Point:   Wind: 7mph
Humidity: 86%   Direction: 200°SSW
Pressure: 29.93"   Gusts: NA
Location:  46.92°N, 95.06°W
Report Text: KPKD 230253Z AUTO 20006KT 10SM -RA BKN024 OVC031 11/09 A2993 RMK AO2 RAE0155B51 SLP142 P0000 60000 T01110089 51006 TSNO
Loading
Personal Weather Stations






























Interactive Weather Map New forecast layout! Learn more

10-Day Weather Forecast

Advertisements
Track Severe Weather on mobile